Time;durP1;ratioP1;P1;durP2;ratioP2;P2;SDS_P1;SDS_P2;PMS_P1;PMS_P2;Temp;Humidity;BMP_temperature;BMP_pressure;BME280_temperature;BME280_humidity;BME280_pressure;Samples;Min_cycle;Max_cycle;Signal;HPM_P1;HPM_P2
2022/11/14 00:01:04;;;;;;;;;;;;;;;;;;10347433;28;19996;-82
2022/11/14 00:06:23;;;;;;;;;;;;;;;;;;10357242;28;19921;-82
2022/11/14 00:11:43;;;;;;;;;;;;;;;;;;10353501;28;19929;-82
2022/11/14 00:17:01;;;;;;;;;;;;;;;;;;10345754;28;20131;-81
2022/11/14 00:22:20;;;;;;;;;;;;;;;;;;10369923;28;20689;-81
2022/11/14 00:27:39;;;;;;;;;;;;;;;;;;10362084;28;19929;-83
2022/11/14 00:32:58;;;;;;;;;;;;;;;;;;10370079;28;19925;-83
2022/11/14 00:38:17;;;;;;;;;;;;;;;;;;10368624;28;19964;-83
2022/11/14 00:43:36;;;;;;;;;;;;;;;;;;10351370;28;19968;-83
2022/11/14 00:48:55;;;;;;;;;;;;;;;;;;10373719;28;20471;-77
2022/11/14 00:54:14;;;;;;;;;;;;;;;;;;10380889;28;19921;-81
2022/11/14 00:59:33;;;;;;;;;;;;;;;;;;10387995;28;19960;-79
2022/11/14 01:04:52;;;;;;;;;;;;;;;;;;10415396;28;19918;-78
2022/11/14 01:10:11;;;;;;;;;;;;;;;;;;10379047;28;19929;-77
2022/11/14 01:15:30;;;;;;;;;;;;;;;;;;10368192;28;20262;-76
2022/11/14 01:20:49;;;;;;;;;;;;;;;;;;10370909;28;19922;-77
2022/11/14 01:26:08;;;;;;;;;;;;;;;;;;10367187;28;20360;-78
2022/11/14 01:31:27;;;;;;;;;;;;;;;;;;10369317;28;19945;-77
2022/11/14 01:36:46;;;;;;;;;;;;;;;;;;10367022;28;20003;-77
2022/11/14 01:42:05;;;;;;;;;;;;;;;;;;10364697;28;19917;-77
2022/11/14 01:47:24;;;;;;;;;;;;;;;;;;10366301;28;19921;-76
2022/11/14 01:52:44;;;;;;;;;;;;;;;;;;10363804;28;20374;-76
2022/11/14 01:58:03;;;;;;;;;;;;;;;;;;10346137;28;19918;-76
2022/11/14 02:03:22;;;;;;;;;;;;;;;;;;10363945;28;20387;-76
2022/11/14 02:08:41;;;;;;;;;;;;;;;;;;10365274;28;19933;-76
2022/11/14 02:14:00;;;;;;;;;;;;;;;;;;10363734;28;19925;-76
2022/11/14 02:19:19;;;;;;;;;;;;;;;;;;10351491;28;20359;-78
2022/11/14 02:24:38;;;;;;;;;;;;;;;;;;10364673;28;19925;-79
2022/11/14 02:29:57;;;;;;;;;;;;;;;;;;10361564;28;19929;-77
2022/11/14 02:35:15;;;;;;;;;;;;;;;;;;10363733;28;20015;-77
2022/11/14 02:40:34;;;;;;;;;;;;;;;;;;10366016;28;20354;-77
2022/11/14 02:45:53;;;;;;;;;;;;;;;;;;10363380;28;19925;-76
2022/11/14 02:51:12;;;;;;;;;;;;;;;;;;10362807;28;20376;-76
2022/11/14 02:56:31;;;;;;;;;;;;;;;;;;10369981;28;19922;-77
2022/11/14 03:01:50;;;;;;;;;;;;;;;;;;10388351;28;19921;-76
2022/11/14 03:07:10;;;;;;;;;;;;;;;;;;10389977;28;19918;-77
2022/11/14 03:12:29;;;;;;;;;;;;;;;;;;10366480;28;20381;-76
2022/11/14 03:17:47;;;;;;;;;;;;;;;;;;10365709;28;20300;-77
2022/11/14 03:23:06;;;;;;;;;;;;;;;;;;10365108;28;19921;-76
2022/11/14 03:28:25;;;;;;;;;;;;;;;;;;10350490;28;19929;-78
2022/11/14 03:33:44;;;;;;;;;;;;;;;;;;10371997;28;20425;-77
2022/11/14 03:39:03;;;;;;;;;;;;;;;;;;10381061;28;19921;-78
2022/11/14 03:44:22;;;;;;;;;;;;;;;;;;10385213;28;19917;-79
2022/11/14 03:49:43;;;;;;;;;;;;;;;;;;10358277;28;19925;-78
2022/11/14 03:55:02;;;;;;;;;;;;;;;;;;10369246;28;20008;-78
2022/11/14 04:00:21;;;;;;;;;;;;;;;;;;10374105;28;19968;-77
2022/11/14 04:05:40;;;;;;;;;;;;;;;;;;10345561;28;19921;-76
2022/11/14 04:10:59;;;;;;;;;;;;;;;;;;10371026;28;19926;-77
2022/11/14 04:16:18;;;;;;;;;;;;;;;;;;10371951;28;19922;-76
2022/11/14 04:21:37;;;;;;;;;;;;;;;;;;10368049;28;19925;-76
2022/11/14 04:26:56;;;;;;;;;;;;;;;;;;10371535;28;19925;-77
2022/11/14 04:32:15;;;;;;;;;;;;;;;;;;10370174;28;20048;-76
2022/11/14 04:37:34;;;;;;;;;;;;;;;;;;10367330;28;19921;-78
2022/11/14 04:42:52;;;;;;;;;;;;;;;;;;10367846;28;20016;-78
2022/11/14 04:48:11;;;;;;;;;;;;;;;;;;10370457;28;19933;-78
2022/11/14 04:53:30;;;;;;;;;;;;;;;;;;10342335;28;20265;-79
2022/11/14 04:58:49;;;;;;;;;;;;;;;;;;10367926;28;19921;-78
2022/11/14 05:04:11;;;;;;;;;;;;;;;;;;10369406;28;19925;-79
2022/11/14 05:09:29;;;;;;;;;;;;;;;;;;10369068;28;19927;-77
2022/11/14 05:14:48;;;;;;;;;;;;;;;;;;10344378;28;19921;-79
2022/11/14 05:20:07;;;;;;;;;;;;;;;;;;10371351;28;20020;-78
2022/11/14 05:25:26;;;;;;;;;;;;;;;;;;10370581;28;20003;-78
2022/11/14 05:30:45;;;;;;;;;;;;;;;;;;10369927;28;19929;-78
2022/11/14 05:36:04;;;;;;;;;;;;;;;;;;10367088;28;19922;-80
2022/11/14 05:41:23;;;;;;;;;;;;;;;;;;10379803;28;19917;-79
2022/11/14 05:46:42;;;;;;;;;;;;;;;;;;10378292;28;19918;-79
2022/11/14 05:52:01;;;;;;;;;;;;;;;;;;10380197;28;19929;-80
2022/11/14 05:57:20;;;;;;;;;;;;;;;;;;10367689;28;19921;-81
2022/11/14 06:02:39;;;;;;;;;;;;;;;;;;10366271;28;20004;-79
2022/11/14 06:07:58;;;;;;;;;;;;;;;;;;10347376;28;19934;-78
2022/11/14 06:13:18;;;;;;;;;;;;;;;;;;10366041;28;20361;-80
2022/11/14 06:18:37;;;;;;;;;;;;;;;;;;10348692;28;19933;-78
2022/11/14 06:23:56;;;;;;;;;;;;;;;;;;10363909;28;19921;-78
2022/11/14 06:29:15;;;;;;;;;;;;;;;;;;10364998;28;20325;-79
2022/11/14 06:34:34;;;;;;;;;;;;;;;;;;10362646;28;19996;-79
2022/11/14 06:39:53;;;;;;;;;;;;;;;;;;10367511;28;19918;-77
2022/11/14 06:45:12;;;;;;;;;;;;;;;;;;10372809;28;20262;-80
2022/11/14 06:50:31;;;;;;;;;;;;;;;;;;10360681;28;19929;-79
2022/11/14 06:55:49;;;;;;;;;;;;;;;;;;10352030;28;19917;-79
2022/11/14 07:01:08;;;;;;;;;;;;;;;;;;10360467;28;20278;-80
2022/11/14 07:06:27;;;;;;;;;;;;;;;;;;10378817;28;19929;-80
2022/11/14 07:11:46;;;;;;;;;;;;;;;;;;10373655;28;19933;-76
2022/11/14 07:17:06;;;;;;;;;;;;;;;;;;10370603;28;19922;-78
2022/11/14 07:22:25;;;;;;;;;;;;;;;;;;10365183;28;19921;-78
2022/11/14 07:27:44;;;;;;;;;;;;;;;;;;10366946;28;19930;-78
2022/11/14 07:33:03;;;;;;;;;;;;;;;;;;10364364;28;19921;-79
2022/11/14 07:38:23;;;;;;;;;;;;;;;;;;10372821;28;19917;-77
2022/11/14 07:43:42;;;;;;;;;;;;;;;;;;10352736;28;19925;-79
2022/11/14 07:49:01;;;;;;;;;;;;;;;;;;10372412;28;20361;-79
2022/11/14 07:54:19;;;;;;;;;;;;;;;;;;10369419;28;19918;-77
2022/11/14 07:59:38;;;;;;;;;;;;;;;;;;10373656;28;19918;-78
2022/11/14 08:04:57;;;;;;;;;;;;;;;;;;10365247;28;19917;-77
2022/11/14 08:10:17;;;;;;;;;;;;;;;;;;10365868;28;19972;-78
2022/11/14 08:15:36;;;;;;;;;;;;;;;;;;10371602;28;19922;-79
2022/11/14 08:20:56;;;;;;;;;;;;;;;;;;10349410;28;19921;-79
2022/11/14 08:26:15;;;;;;;;;;;;;;;;;;10369138;28;19933;-78
2022/11/14 08:31:34;;;;;;;;;;;;;;;;;;10348099;28;19930;-79
2022/11/14 08:36:53;;;;;;;;;;;;;;;;;;10350204;28;19957;-79
2022/11/14 08:42:11;;;;;;;;;;;;;;;;;;10371075;28;19926;-79
2022/11/14 08:47:30;;;;;;;;;;;;;;;;;;10372703;28;20653;-78
2022/11/14 08:52:50;;;;;;;;;;;;;;;;;;10368590;28;20349;-78
2022/11/14 08:58:09;;;;;;;;;;;;;;;;;;10367527;28;19918;-77
2022/11/14 09:03:28;;;;;;;;;;;;;;;;;;10359434;28;20290;-78
2022/11/14 09:08:46;;;;;;;;;;;;;;;;;;10369396;28;19930;-79
2022/11/14 09:14:05;;;;;;;;;;;;;;;;;;10372242;28;19921;-78
2022/11/14 09:19:24;;;;;;;;;;;;;;;;;;10369786;28;20017;-78
2022/11/14 09:24:45;;;;;;;;;;;;;;;;;;10365061;28;19921;-78
2022/11/14 09:30:04;;;;;;;;;;;;;;;;;;10362838;28;19929;-78
2022/11/14 09:35:23;;;;;;;;;;;;;;;;;;10365458;28;20293;-78
2022/11/14 09:40:42;;;;;;;;;;;;;;;;;;10360432;28;19917;-80
2022/11/14 09:46:01;;;;;;;;;;;;;;;;;;10361377;28;19921;-79
2022/11/14 09:51:20;;;;;;;;;;;;;;;;;;10368150;28;20656;-79
2022/11/14 09:56:39;;;;;;;;;;;;;;;;;;10366175;28;19918;-80
2022/11/14 10:01:58;;;;;;;;;;;;;;;;;;10352092;28;20330;-81
2022/11/14 10:07:17;;;;;;;;;;;;;;;;;;10363323;28;19918;-78
2022/11/14 10:12:35;;;;;;;;;;;;;;;;;;10338744;28;19929;-79
2022/11/14 10:17:54;;;;;;;;;;;;;;;;;;10366040;28;19953;-80
2022/11/14 10:23:13;;;;;;;;;;;;;;;;;;10365019;28;19921;-79
2022/11/14 10:28:32;;;;;;;;;;;;;;;;;;10367778;28;19941;-80
2022/11/14 10:33:51;;;;;;;;;;;;;;;;;;10366273;28;19921;-81
2022/11/14 10:39:10;;;;;;;;;;;;;;;;;;10366856;28;19921;-78
2022/11/14 10:44:30;;;;;;;;;;;;;;;;;;10361578;28;19917;-80
2022/11/14 10:49:49;;;;;;;;;;;;;;;;;;10365830;28;19933;-78
2022/11/14 10:55:08;;;;;;;;;;;;;;;;;;10366552;28;20033;-79
2022/11/14 11:00:27;;;;;;;;;;;;;;;;;;10362237;28;20242;-79
2022/11/14 11:05:46;;;;;;;;;;;;;;;;;;10367990;28;19921;-78
2022/11/14 11:16:43;;;;;;;;;;;;;;;;;;10367718;28;19922;-83
2022/11/14 11:22:02;;;;;;;;;;;;;;;;;;10372349;28;19921;-80
2022/11/14 11:27:24;;;;;;;;;;;;;;;;;;10381299;28;20293;-80
2022/11/14 11:32:43;;;;;;;;;;;;;;;;;;10386030;28;19930;-80
2022/11/14 11:38:04;;;;;;;;;;;;;;;;;;10390401;28;19918;-79
2022/11/14 11:43:23;;;;;;;;;;;;;;;;;;10367644;28;19921;-79
2022/11/14 11:48:42;;;;;;;;;;;;;;;;;;10409425;28;19913;-80
2022/11/14 11:54:05;;;;;;;;;;;;;;;;;;10382816;28;20684;-76
2022/11/14 11:59:24;;;;;;;;;;;;;;;;;;10404553;28;19921;-81
2022/11/14 12:04:43;;;;;;;;;;;;;;;;;;10366193;28;19914;-81
2022/11/14 12:10:02;;;;;;;;;;;;;;;;;;10405940;28;19925;-81
2022/11/14 12:15:21;;;;;;;;;;;;;;;;;;10411787;28;19981;-82
2022/11/14 12:20:40;;;;;;;;;;;;;;;;;;10415706;28;19925;-82
2022/11/14 12:25:59;;;;;;;;;;;;;;;;;;10420213;28;19949;-75
2022/11/14 12:31:18;;;;;;;;;;;;;;;;;;10423307;28;19929;-81
2022/11/14 12:36:37;;;;;;;;;;;;;;;;;;10420247;28;19918;-80
2022/11/14 12:41:57;;;;;;;;;;;;;;;;;;10374540;28;20365;-79
2022/11/14 12:47:16;;;;;;;;;;;;;;;;;;10381298;28;19977;-81
2022/11/14 12:52:35;;;;;;;;;;;;;;;;;;10391187;28;19933;-81
2022/11/14 12:57:54;;;;;;;;;;;;;;;;;;10368465;28;19926;-80
2022/11/14 13:03:13;;;;;;;;;;;;;;;;;;10373489;28;19921;-81
2022/11/14 13:08:32;;;;;;;;;;;;;;;;;;10370584;28;20298;-82
2022/11/14 13:25:08;;;;;;;;;;;;;;;;;;10369348;28;19926;-80
2022/11/14 13:30:28;;;;;;;;;;;;;;;;;;10363874;28;19926;-80
2022/11/14 13:35:48;;;;;;;;;;;;;;;;;;10313375;28;20286;-81
2022/11/14 13:41:07;;;;;;;;;;;;;;;;;;10328801;28;19921;-81
2022/11/14 13:46:26;;;;;;;;;;;;;;;;;;10335706;28;19940;-80
2022/11/14 13:51:45;;;;;;;;;;;;;;;;;;10320028;28;19933;-78
2022/11/14 13:57:04;;;;;;;;;;;;;;;;;;10339197;28;19925;-80
2022/11/14 14:02:22;;;;;;;;;;;;;;;;;;10307134;28;20294;-82
2022/11/14 14:07:41;;;;;;;;;;;;;;;;;;10325630;28;19922;-82
2022/11/14 14:13:00;;;;;;;;;;;;;;;;;;10331558;28;20008;-83
2022/11/14 14:18:20;;;;;;;;;;;;;;;;;;10341010;28;19917;-82
2022/11/14 14:23:24;;;;;;;;;;;;;;;;;;10289476;28;19922;-79
2022/11/14 14:28:43;;;;;;;;;;;;;;;;;;10291673;28;20278;-80
2022/11/14 14:34:02;;;;;;;;;;;;;;;;;;10299505;28;20365;-82
2022/11/14 14:39:24;;;;;;;;;;;;;;;;;;10291462;28;20283;-80
2022/11/14 14:44:46;;;;;;;;;;;;;;;;;;10307840;28;19950;-82
2022/11/14 14:50:06;;;;;;;;;;;;;;;;;;10300245;28;19930;-82
2022/11/14 14:55:26;;;;;;;;;;;;;;;;;;10293998;28;20258;-81
2022/11/14 15:00:46;;;;;;;;;;;;;;;;;;10297405;28;19938;-81
2022/11/14 15:06:05;;;;;;;;;;;;;;;;;;10313766;28;19918;-78
2022/11/14 15:11:24;;;;;;;;;;;;;;;;;;10305375;28;19926;-79
2022/11/14 15:16:43;;;;;;;;;;;;;;;;;;10294183;28;19918;-80
2022/11/14 15:22:02;;;;;;;;;;;;;;;;;;10320549;28;19922;-81
2022/11/14 15:27:24;;;;;;;;;;;;;;;;;;10324053;28;19929;-78
2022/11/14 15:32:43;;;;;;;;;;;;;;;;;;10324428;28;20016;-78
2022/11/14 15:38:02;;;;;;;;;;;;;;;;;;10321765;28;20236;-79
2022/11/14 15:43:21;;;;;;;;;;;;;;;;;;10323343;28;19922;-83
2022/11/14 15:48:40;;;;;;;;;;;;;;;;;;10320560;28;19934;-78
2022/11/14 15:54:00;;;;;;;;;;;;;;;;;;10314885;28;19930;-78
2022/11/14 15:59:19;;;;;;;;;;;;;;;;;;10326808;28;19921;-77
2022/11/14 16:04:39;;;;;;;;;;;;;;;;;;10328533;28;19922;-81
2022/11/14 16:09:58;;;;;;;;;;;;;;;;;;10333225;28;20365;-76
2022/11/14 16:15:17;;;;;;;;;;;;;;;;;;10332276;28;20392;-76
2022/11/14 16:20:38;;;;;;;;;;;;;;;;;;10328196;28;19961;-78
2022/11/14 16:25:57;;;;;;;;;;;;;;;;;;10332581;28;19921;-80
2022/11/14 16:31:17;;;;;;;;;;;;;;;;;;10332285;28;20354;-79
2022/11/14 16:36:36;;;;;;;;;;;;;;;;;;10322862;28;19922;-76
2022/11/14 16:41:55;;;;;;;;;;;;;;;;;;10334685;28;19922;-78
2022/11/14 16:47:14;;;;;;;;;;;;;;;;;;10332182;28;19988;-79
2022/11/14 16:52:33;;;;;;;;;;;;;;;;;;10334868;28;20321;-79
2022/11/14 16:57:53;;;;;;;;;;;;;;;;;;10339038;28;19918;-78
2022/11/14 17:03:12;;;;;;;;;;;;;;;;;;10337375;28;19922;-79
2022/11/14 17:08:31;;;;;;;;;;;;;;;;;;10337909;28;19969;-79
2022/11/14 17:13:50;;;;;;;;;;;;;;;;;;10339215;28;20427;-79
2022/11/14 17:19:09;;;;;;;;;;;;;;;;;;10365110;28;19929;-77
2022/11/14 17:24:28;;;;;;;;;;;;;;;;;;10359764;28;19925;-79
2022/11/14 17:29:47;;;;;;;;;;;;;;;;;;10369872;28;19933;-79
2022/11/14 17:35:06;;;;;;;;;;;;;;;;;;10366315;28;19926;-79
2022/11/14 17:40:25;;;;;;;;;;;;;;;;;;10364116;28;19921;-78
2022/11/14 17:45:44;;;;;;;;;;;;;;;;;;10368908;28;20412;-81
2022/11/14 17:51:03;;;;;;;;;;;;;;;;;;10361712;28;19930;-80
2022/11/14 17:56:22;;;;;;;;;;;;;;;;;;10366785;28;19925;-79
2022/11/14 18:01:41;;;;;;;;;;;;;;;;;;10370847;28;19921;-79
2022/11/14 18:07:00;;;;;;;;;;;;;;;;;;10359399;28;19917;-77
2022/11/14 18:12:19;;;;;;;;;;;;;;;;;;10374658;28;19965;-78
2022/11/14 18:17:38;;;;;;;;;;;;;;;;;;10352859;28;19960;-79
2022/11/14 18:22:57;;;;;;;;;;;;;;;;;;10352540;28;19917;-76
2022/11/14 18:28:16;;;;;;;;;;;;;;;;;;10368988;28;19921;-81
2022/11/14 18:33:35;;;;;;;;;;;;;;;;;;10382214;28;19925;-80
2022/11/14 18:38:54;;;;;;;;;;;;;;;;;;10353861;28;19972;-79
2022/11/14 18:44:16;;;;;;;;;;;;;;;;;;10375608;28;20301;-80
2022/11/14 18:49:38;;;;;;;;;;;;;;;;;;10377062;28;20366;-79
2022/11/14 18:54:57;;;;;;;;;;;;;;;;;;10366936;28;19918;-80
2022/11/14 19:00:17;;;;;;;;;;;;;;;;;;10367454;28;19922;-79
2022/11/14 19:05:36;;;;;;;;;;;;;;;;;;10352104;28;20026;-80
2022/11/14 19:10:55;;;;;;;;;;;;;;;;;;10349904;28;20031;-78
2022/11/14 19:16:14;;;;;;;;;;;;;;;;;;10389658;28;19921;-77
2022/11/14 19:21:33;;;;;;;;;;;;;;;;;;10410728;28;19921;-80
2022/11/14 19:26:52;;;;;;;;;;;;;;;;;;10372178;28;19922;-80
2022/11/14 19:32:11;;;;;;;;;;;;;;;;;;10384604;28;20385;-78
2022/11/14 19:37:30;;;;;;;;;;;;;;;;;;10371620;28;20008;-83
2022/11/14 19:42:49;;;;;;;;;;;;;;;;;;10348067;28;20377;-81
2022/11/14 19:48:08;;;;;;;;;;;;;;;;;;10373048;28;19961;-81
2022/11/14 19:53:28;;;;;;;;;;;;;;;;;;10372948;28;19933;-81
2022/11/14 19:58:48;;;;;;;;;;;;;;;;;;10372320;28;19925;-84
2022/11/14 20:04:07;;;;;;;;;;;;;;;;;;10367749;28;20294;-79
2022/11/14 20:09:27;;;;;;;;;;;;;;;;;;10374269;28;19949;-82
2022/11/14 20:14:46;;;;;;;;;;;;;;;;;;10380090;28;19930;-82
2022/11/14 20:20:05;;;;;;;;;;;;;;;;;;10378087;28;19917;-82
2022/11/14 20:25:24;;;;;;;;;;;;;;;;;;10379185;28;19925;-82
2022/11/14 20:30:43;;;;;;;;;;;;;;;;;;10380567;28;19925;-80
2022/11/14 20:36:02;;;;;;;;;;;;;;;;;;10399979;28;19949;-79
2022/11/14 20:41:21;;;;;;;;;;;;;;;;;;10387561;28;19922;-81
2022/11/14 20:46:40;;;;;;;;;;;;;;;;;;10394437;28;19921;-80
2022/11/14 20:52:03;;;;;;;;;;;;;;;;;;10385763;28;19926;-83
2022/11/14 20:57:22;;;;;;;;;;;;;;;;;;10393415;28;19922;-83
2022/11/14 21:02:41;;;;;;;;;;;;;;;;;;10378348;28;20270;-83
2022/11/14 21:08:00;;;;;;;;;;;;;;;;;;10376341;28;20557;-82
2022/11/14 21:18:57;;;;;;;;;;;;;;;;;;10381936;28;20270;-82
2022/11/14 21:28:38;;;;;;;10.90;7.20;;;;;;;;;;10606325;27;1986634;-80
2022/11/14 21:33:59;;;;;;;8.70;6.18;;;;;;;;;;10652715;27;20046;-79
2022/11/14 21:39:22;;;;;;;11.95;7.22;;;;;;;;;;10629276;27;20032;-81
2022/11/14 21:44:41;;;;;;;12.27;7.90;;;;;;;;;;10646911;27;20084;-80
2022/11/14 21:50:00;;;;;;;14.05;8.85;;;;;;;;;;10637608;27;20020;-80
2022/11/14 21:55:19;;;;;;;14.57;9.45;;;;;;;;;;10644427;27;20059;-81
2022/11/14 22:00:39;;;;;;;11.23;8.30;;;;;;;;;;10648542;27;20059;-79
2022/11/14 22:06:00;;;;;;;10.95;7.45;;;;;;;;;;10639355;27;20035;-80
2022/11/14 22:11:19;;;;;;;10.25;8.10;;;;;;;;;;10597634;27;20036;-79
2022/11/14 22:16:39;;;;;;;10.80;7.50;;;;;;;;;;10578035;27;20210;-80
2022/11/14 22:21:59;;;;;;;10.90;8.20;;;;;;;;;;10534867;28;20036;-80
2022/11/14 22:27:18;;;;;;;11.02;7.25;;;;;;;;;;10589989;28;20131;-79
2022/11/14 22:32:41;;;;;;;9.45;6.65;;;;;;;;;;10525542;28;20037;-82
2022/11/14 22:38:00;;;;;;;10.50;7.30;;;;;;;;;;10507259;28;20020;-80
2022/11/14 22:43:21;;;;;;;11.55;7.45;;;;;;;;;;10489154;28;20037;-79
2022/11/14 22:48:40;;;;;;;14.20;8.30;;;;;;;;;;10483397;28;20056;-79
2022/11/14 22:53:59;;;;;;;11.10;7.82;;;;;;;;;;10502746;28;20036;-81
2022/11/14 22:59:18;;;;;;;11.07;7.88;;;;;;;;;;10497820;28;20045;-83
2022/11/14 23:04:37;;;;;;;12.80;8.10;;;;;;;;;;10503990;28;20040;-79
2022/11/14 23:09:56;;;;;;;11.10;7.57;;;;;;;;;;10490998;28;20025;-81
2022/11/14 23:15:16;;;;;;;9.57;7.32;;;;;;;;;;10512597;28;20169;-80
2022/11/14 23:20:35;;;;;;;11.27;6.85;;;;;;;;;;10482535;28;20052;-81
2022/11/14 23:25:54;;;;;;;8.63;6.97;;;;;;;;;;10483775;28;20049;-80
2022/11/14 23:31:17;;;;;;;8.35;7.05;;;;;;;;;;10468332;28;20068;-80
2022/11/14 23:36:37;;;;;;;10.80;6.93;;;;;;;;;;10484870;28;20040;-79
2022/11/14 23:41:56;;;;;;;10.15;7.15;;;;;;;;;;10483528;28;20033;-78
2022/11/14 23:47:15;;;;;;;11.38;7.30;;;;;;;;;;10497175;28;20053;-79
2022/11/14 23:52:34;;;;;;;10.90;7.22;;;;;;;;;;10473231;28;20048;-79
2022/11/14 23:57:53;;;;;;;11.60;7.22;;;;;;;;;;10457321;28;20036;-80
